createdAt,value
2022-11-15T00:02:40.209Z,11.07
2022-11-15T00:05:28.637Z,10.80
2022-11-15T00:08:15.885Z,11.20
2022-11-15T00:11:05.125Z,12.37
2022-11-15T00:13:52.098Z,12.50
2022-11-15T00:16:39.495Z,12.57
2022-11-15T00:19:26.160Z,11.53
2022-11-15T00:22:14.645Z,11.00
2022-11-15T00:25:01.578Z,11.90
2022-11-15T00:27:48.728Z,11.20
2022-11-15T00:30:35.718Z,10.93
2022-11-15T00:33:22.480Z,12.00
2022-11-15T00:36:11.745Z,12.57
2022-11-15T00:38:59.800Z,11.73
2022-11-15T00:41:46.539Z,12.57
2022-11-15T00:44:33.705Z,12.23
2022-11-15T00:47:21.086Z,12.00
2022-11-15T00:50:11.695Z,12.67
2022-11-15T00:53:01.194Z,12.17
2022-11-15T00:55:49.419Z,10.33
2022-11-15T00:58:36.118Z,11.13
2022-11-15T01:01:23.530Z,11.97
2022-11-15T01:04:10.807Z,11.40
2022-11-15T01:06:57.931Z,11.40
2022-11-15T01:09:45.148Z,12.97
2022-11-15T01:12:34.038Z,11.60
2022-11-15T01:15:21.208Z,11.80
2022-11-15T01:18:08.261Z,11.17
2022-11-15T01:20:55.154Z,11.20
2022-11-15T01:23:42.193Z,9.57
2022-11-15T01:26:29.505Z,10.77
2022-11-15T01:29:18.235Z,9.90
2022-11-15T01:32:05.671Z,11.00
2022-11-15T01:34:52.889Z,10.43
2022-11-15T01:37:39.936Z,9.37
2022-11-15T01:40:26.950Z,9.27
2022-11-15T01:43:26.468Z,8.60
2022-11-15T01:46:29.948Z,9.57
2022-11-15T01:49:20.598Z,9.23
2022-11-15T01:52:12.879Z,9.17
2022-11-15T01:55:08.763Z,8.60
2022-11-15T01:58:00.598Z,7.87
2022-11-15T02:00:48.811Z,8.70
2022-11-15T02:03:44.560Z,8.20
2022-11-15T02:06:31.682Z,8.30
2022-11-15T02:09:20.134Z,7.80
2022-11-15T02:12:09.327Z,7.50
2022-11-15T02:14:58.343Z,6.87
2022-11-15T02:18:12.638Z,7.40
2022-11-15T02:21:28.574Z,6.53
2022-11-15T02:25:03.719Z,6.00
2022-11-15T02:28:43.321Z,6.33
2022-11-15T02:31:38.882Z,6.07
2022-11-15T02:34:37.151Z,6.10
2022-11-15T02:37:34.235Z,5.50
2022-11-15T02:40:33.285Z,5.73
2022-11-15T02:43:44.784Z,6.87
2022-11-15T02:46:58.475Z,5.60
2022-11-15T02:49:50.401Z,6.10
2022-11-15T02:52:37.402Z,5.83
2022-11-15T02:55:30.891Z,6.40
2022-11-15T02:58:50.622Z,6.83
2022-11-15T03:01:54.887Z,6.47
2022-11-15T03:04:50.325Z,6.30
2022-11-15T03:07:45.129Z,6.10
2022-11-15T03:10:44.635Z,6.10
2022-11-15T03:13:40.121Z,5.90
2022-11-15T03:16:36.127Z,6.17
2022-11-15T03:19:34.370Z,7.30
2022-11-15T03:22:26.675Z,6.30
2022-11-15T03:25:23.206Z,6.60
2022-11-15T03:28:15.129Z,5.97
2022-11-15T03:31:27.373Z,6.77
2022-11-15T03:34:27.683Z,6.87
2022-11-15T03:37:17.859Z,7.00
2022-11-15T03:40:07.126Z,6.27
2022-11-15T03:43:04.180Z,7.10
2022-11-15T03:45:58.148Z,7.47
2022-11-15T03:48:53.040Z,6.87
2022-11-15T03:51:42.026Z,6.43
2022-11-15T03:54:29.078Z,6.47
2022-11-15T03:57:15.867Z,6.60
2022-11-15T04:00:02.901Z,8.00
2022-11-15T04:02:50.046Z,6.70
2022-11-15T04:05:36.820Z,7.53
2022-11-15T04:08:25.253Z,7.20
2022-11-15T04:11:12.265Z,7.50
2022-11-15T04:13:59.240Z,6.60
2022-11-15T04:16:46.252Z,7.40
2022-11-15T04:19:50.843Z,7.50
2022-11-15T04:22:55.649Z,7.20
2022-11-15T04:25:44.969Z,8.77
2022-11-15T04:28:31.894Z,7.30
2022-11-15T04:31:26.839Z,7.10
2022-11-15T04:34:13.668Z,7.50
2022-11-15T04:37:17.159Z,8.07
2022-11-15T04:40:04.626Z,7.03
2022-11-15T04:42:51.813Z,7.40
2022-11-15T04:45:38.762Z,8.13
2022-11-15T04:48:27.269Z,8.40
2022-11-15T04:51:14.096Z,8.07
2022-11-15T04:54:01.009Z,7.50
2022-11-15T04:56:47.957Z,6.10
2022-11-15T04:59:34.979Z,7.30
2022-11-15T05:02:21.817Z,6.63
2022-11-15T05:05:15.244Z,7.00
2022-11-15T05:08:01.920Z,7.00
2022-11-15T05:10:50.355Z,7.10
2022-11-15T05:13:37.120Z,6.60
2022-11-15T05:16:24.391Z,6.33
2022-11-15T05:19:11.456Z,7.00
2022-11-15T05:21:59.577Z,6.77
2022-11-15T05:24:46.324Z,7.00
2022-11-15T05:27:33.844Z,7.03
2022-11-15T05:30:21.111Z,6.87
2022-11-15T05:33:07.889Z,7.37
2022-11-15T05:36:02.599Z,6.20
2022-11-15T05:38:51.570Z,6.90
2022-11-15T05:41:43.171Z,6.47
2022-11-15T05:44:30.541Z,6.90
2022-11-15T05:47:23.778Z,7.73
2022-11-15T05:50:15.147Z,7.53
2022-11-15T05:53:05.314Z,7.17
2022-11-15T05:55:53.962Z,7.70
2022-11-15T05:58:40.767Z,8.63
2022-11-15T06:01:29.302Z,7.50
2022-11-15T06:04:16.245Z,7.57
2022-11-15T06:07:03.368Z,7.97
2022-11-15T06:09:50.474Z,8.43
2022-11-15T06:12:38.752Z,7.10
2022-11-15T06:15:25.528Z,7.93
2022-11-15T06:18:12.702Z,9.07
2022-11-15T06:21:01.972Z,7.23
2022-11-15T06:23:49.023Z,8.03
2022-11-15T06:26:35.897Z,7.97
2022-11-15T06:29:24.457Z,8.50
2022-11-15T06:32:11.308Z,8.23
2022-11-15T06:34:58.362Z,10.90
2022-11-15T06:37:45.636Z,9.30
2022-11-15T06:40:32.524Z,8.10
2022-11-15T06:43:19.652Z,8.83
2022-11-15T06:46:08.726Z,8.73
2022-11-15T06:48:56.252Z,9.17
2022-11-15T06:51:42.904Z,8.00
2022-11-15T06:54:29.771Z,8.80
2022-11-15T06:57:16.799Z,7.20
2022-11-15T07:00:05.289Z,7.60
2022-11-15T07:02:53.779Z,10.53
2022-11-15T07:05:40.933Z,7.47
2022-11-15T07:08:30.614Z,8.27
2022-11-15T07:11:17.693Z,8.73
2022-11-15T07:14:04.416Z,8.80
2022-11-15T07:16:51.551Z,9.57
2022-11-15T07:19:39.988Z,8.43
2022-11-15T07:22:26.884Z,8.87
2022-11-15T07:25:13.959Z,8.37
2022-11-15T07:28:02.201Z,8.90
2022-11-15T07:30:49.042Z,8.23
2022-11-15T07:33:36.934Z,8.00
2022-11-15T07:36:25.412Z,8.33
2022-11-15T07:39:13.122Z,9.47
2022-11-15T07:42:13.910Z,8.83
2022-11-15T07:45:01.015Z,8.00
2022-11-15T07:47:48.214Z,7.17
2022-11-15T07:50:35.580Z,7.87
2022-11-15T07:53:23.895Z,7.37
2022-11-15T07:56:11.107Z,7.03
2022-11-15T07:58:58.508Z,7.43
2022-11-15T08:01:45.545Z,7.90
2022-11-15T08:04:32.359Z,8.20
2022-11-15T08:07:19.569Z,8.57
2022-11-15T08:10:09.956Z,8.23
2022-11-15T08:13:04.346Z,7.90
2022-11-15T08:15:57.395Z,7.37
2022-11-15T08:18:44.953Z,7.77
2022-11-15T08:21:31.907Z,6.87
2022-11-15T08:24:18.979Z,7.97
2022-11-15T08:27:15.931Z,8.83
2022-11-15T08:30:03.700Z,8.37
2022-11-15T08:32:51.279Z,7.20
2022-11-15T08:35:38.259Z,6.43
2022-11-15T08:38:25.367Z,6.27
2022-11-15T08:41:27.620Z,7.23
2022-11-15T08:44:16.213Z,6.80
2022-11-15T08:47:02.975Z,5.70
2022-11-15T08:49:50.117Z,6.60
2022-11-15T08:52:36.939Z,5.83
2022-11-15T08:55:24.978Z,5.63
2022-11-15T08:58:12.285Z,5.40
2022-11-15T09:01:00.923Z,6.70
2022-11-15T09:03:48.373Z,6.60
2022-11-15T09:06:36.315Z,6.00
2022-11-15T09:09:25.712Z,5.60
2022-11-15T09:12:12.707Z,5.67
2022-11-15T09:15:00.065Z,4.90
2022-11-15T09:17:48.271Z,5.33
2022-11-15T09:20:35.342Z,5.60
2022-11-15T09:23:22.097Z,5.07
2022-11-15T09:26:09.343Z,5.13
2022-11-15T09:28:56.219Z,5.50
2022-11-15T09:31:43.788Z,5.43
2022-11-15T09:34:31.881Z,5.93
2022-11-15T09:37:19.074Z,6.07
2022-11-15T09:40:07.100Z,5.30
2022-11-15T09:43:24.290Z,6.33
2022-11-15T09:46:17.988Z,6.43
2022-11-15T09:49:05.580Z,6.17
2022-11-15T09:51:37.638Z,7.00
2022-11-15T09:57:16.076Z,7.30
2022-11-15T10:03:14.019Z,7.57
2022-11-15T10:05:45.066Z,7.07
2022-11-15T10:08:31.300Z,7.17
2022-11-15T10:11:35.587Z,7.07
2022-11-15T10:13:53.241Z,8.80
2022-11-15T10:17:10.646Z,7.23
2022-11-15T10:19:54.644Z,6.63
2022-11-15T10:22:42.634Z,6.20
2022-11-15T10:25:34.760Z,5.93
2022-11-15T10:28:13.514Z,6.50
2022-11-15T10:30:45.345Z,6.70
2022-11-15T10:33:28.740Z,7.47
2022-11-15T10:36:25.666Z,6.67
2022-11-15T10:38:57.930Z,5.07
2022-11-15T10:41:38.382Z,5.60
2022-11-15T10:44:23.984Z,5.07
2022-11-15T10:47:26.443Z,4.13
2022-11-15T10:50:05.393Z,5.30
2022-11-15T10:52:39.177Z,5.00
2022-11-15T10:55:26.491Z,5.13
2022-11-15T10:58:06.174Z,5.40
2022-11-15T11:00:43.337Z,5.30
2022-11-15T11:03:30.803Z,4.13
2022-11-15T11:06:12.851Z,4.43
2022-11-15T11:08:42.299Z,5.17
2022-11-15T11:11:11.245Z,5.90
2022-11-15T11:13:42.166Z,5.43
2022-11-15T11:16:46.120Z,5.40
2022-11-15T11:19:48.979Z,4.73
2022-11-15T11:22:29.298Z,5.10
2022-11-15T11:25:10.617Z,5.07
2022-11-15T11:27:48.009Z,5.40
2022-11-15T11:30:24.066Z,5.73
2022-11-15T11:33:08.041Z,5.30
2022-11-15T11:35:47.643Z,4.90
2022-11-15T11:38:43.156Z,5.20
2022-11-15T11:41:22.803Z,4.90
2022-11-15T11:44:03.468Z,4.43
2022-11-15T11:46:57.465Z,4.50
2022-11-15T11:49:36.174Z,4.80
2022-11-15T11:52:12.223Z,4.87
2022-11-15T11:54:56.174Z,4.80
2022-11-15T11:57:36.764Z,4.40
2022-11-15T12:00:16.803Z,4.43
2022-11-15T12:02:55.713Z,4.87
2022-11-15T12:05:31.218Z,4.60
2022-11-15T12:08:28.227Z,5.00
2022-11-15T12:11:10.787Z,4.30
2022-11-15T12:13:40.592Z,4.70
2022-11-15T12:16:17.112Z,4.33
2022-11-15T12:18:51.941Z,5.40
2022-11-15T12:21:34.418Z,4.83
2022-11-15T12:24:07.171Z,4.80
2022-11-15T12:26:41.673Z,4.97
2022-11-15T12:29:18.253Z,5.07
2022-11-15T12:31:52.022Z,4.67
2022-11-15T12:34:45.964Z,4.10
2022-11-15T12:37:56.410Z,4.43
2022-11-15T12:40:38.064Z,4.33
2022-11-15T12:43:39.024Z,4.23
2022-11-15T12:46:13.979Z,4.33
2022-11-15T12:48:55.906Z,3.93
2022-11-15T12:52:08.171Z,3.90
2022-11-15T12:55:06.286Z,4.50
2022-11-15T12:57:44.511Z,4.17
2022-11-15T13:00:49.492Z,3.63
2022-11-15T13:03:31.119Z,4.63
2022-11-15T13:06:10.145Z,5.00
2022-11-15T13:08:49.363Z,3.73
2022-11-15T13:12:01.678Z,3.53
2022-11-15T13:14:52.590Z,3.70
2022-11-15T13:17:37.246Z,3.90
2022-11-15T13:20:32.456Z,3.87
2022-11-15T13:23:11.866Z,3.80
2022-11-15T13:26:10.435Z,3.60
2022-11-15T13:28:45.362Z,2.83
2022-11-15T13:31:35.814Z,2.83
2022-11-15T13:34:44.623Z,3.90
2022-11-15T13:37:12.095Z,3.00
2022-11-15T13:40:01.623Z,2.40
2022-11-15T13:42:33.699Z,2.37
2022-11-15T13:45:11.621Z,2.10
2022-11-15T13:47:40.196Z,2.30
2022-11-15T13:50:13.263Z,2.23
2022-11-15T13:52:46.603Z,2.73
2022-11-15T13:55:18.060Z,2.27
2022-11-15T13:57:51.814Z,2.10
2022-11-15T14:00:45.313Z,2.30
2022-11-15T14:03:21.859Z,2.10
2022-11-15T14:06:08.577Z,2.30
2022-11-15T14:08:37.974Z,2.77
2022-11-15T14:11:19.214Z,2.80
2022-11-15T14:14:23.246Z,2.20
2022-11-15T14:16:55.173Z,2.73
2022-11-15T14:19:41.588Z,3.13
2022-11-15T14:22:18.857Z,2.53
2022-11-15T14:25:05.194Z,2.77
2022-11-15T14:27:34.077Z,3.30
2022-11-15T14:30:06.629Z,2.27
2022-11-15T14:32:48.892Z,1.90
2022-11-15T14:35:23.669Z,3.00
2022-11-15T14:37:52.511Z,2.73
2022-11-15T14:40:23.665Z,2.67
2022-11-15T14:42:52.512Z,2.53
2022-11-15T14:45:25.141Z,3.33
2022-11-15T14:47:53.521Z,2.60
2022-11-15T14:50:23.969Z,2.50
2022-11-15T14:52:54.975Z,2.53
2022-11-15T14:55:26.321Z,2.83
2022-11-15T14:57:54.721Z,2.20
2022-11-15T15:00:42.078Z,2.37
2022-11-15T15:03:13.995Z,2.80
2022-11-15T15:05:44.782Z,2.43
2022-11-15T15:08:13.572Z,2.70
2022-11-15T15:10:44.706Z,2.50
2022-11-15T15:13:20.670Z,2.70
2022-11-15T15:15:52.371Z,3.67
2022-11-15T15:18:21.549Z,2.80
2022-11-15T15:20:57.487Z,3.73
2022-11-15T15:23:28.003Z,4.00
2022-11-15T15:25:56.437Z,4.50
2022-11-15T15:28:27.583Z,4.10
2022-11-15T15:30:59.732Z,4.40
2022-11-15T15:33:28.240Z,4.47
2022-11-15T15:35:56.618Z,3.97
2022-11-15T15:38:25.013Z,4.20
2022-11-15T15:40:53.422Z,5.03
2022-11-15T15:43:21.796Z,5.50
2022-11-15T15:45:50.131Z,4.93
2022-11-15T15:48:19.889Z,4.20
2022-11-15T15:50:48.366Z,4.23
2022-11-15T15:53:16.749Z,5.57
2022-11-15T15:55:45.236Z,6.20
2022-11-15T15:58:13.579Z,4.53
2022-11-15T16:00:41.982Z,4.80
2022-11-15T16:03:10.424Z,5.03
2022-11-15T16:05:43.272Z,4.70
2022-11-15T16:08:20.519Z,4.33
2022-11-15T16:10:49.563Z,4.90
2022-11-15T16:13:18.614Z,4.07
2022-11-15T16:15:49.793Z,4.50
2022-11-15T16:18:20.364Z,7.57
2022-11-15T16:20:53.113Z,4.23
2022-11-15T16:23:24.637Z,5.10
2022-11-15T16:25:56.361Z,4.40
2022-11-15T16:28:27.189Z,4.50
2022-11-15T16:31:06.882Z,4.30
2022-11-15T16:33:50.551Z,4.30
2022-11-15T16:36:30.010Z,5.37
2022-11-15T16:39:00.101Z,3.70
2022-11-15T16:41:28.756Z,4.43
2022-11-15T16:43:57.134Z,4.00
2022-11-15T16:46:28.012Z,5.10
2022-11-15T16:48:56.941Z,4.20
2022-11-15T16:51:26.780Z,4.03
2022-11-15T16:53:55.223Z,3.87
2022-11-15T16:56:28.483Z,4.30
2022-11-15T16:58:58.694Z,4.80
2022-11-15T17:01:29.888Z,4.50
2022-11-15T17:03:58.738Z,3.10
2022-11-15T17:06:28.827Z,4.17
2022-11-15T17:08:57.230Z,3.80
2022-11-15T17:11:25.544Z,3.93
2022-11-15T17:13:59.796Z,4.17
2022-11-15T17:16:28.305Z,4.93
2022-11-15T17:18:57.213Z,3.97
2022-11-15T17:21:33.370Z,3.80
2022-11-15T17:24:02.239Z,4.27
2022-11-15T17:26:34.002Z,4.33
2022-11-15T17:29:07.839Z,3.77
2022-11-15T17:31:37.782Z,4.40
2022-11-15T17:34:07.943Z,4.57
2022-11-15T17:36:37.741Z,4.90
2022-11-15T17:39:06.898Z,4.40
2022-11-15T17:41:35.388Z,4.97
2022-11-15T17:44:04.325Z,4.37
2022-11-15T17:46:34.099Z,5.20
2022-11-15T17:49:02.664Z,4.17
2022-11-15T17:51:31.257Z,4.37
2022-11-15T17:54:01.097Z,4.80
2022-11-15T17:56:31.542Z,5.37
2022-11-15T17:59:02.069Z,5.70
2022-11-15T18:01:32.396Z,4.70
2022-11-15T18:04:02.561Z,5.10
2022-11-15T18:06:33.571Z,5.13
2022-11-15T18:09:05.148Z,4.13
2022-11-15T18:11:38.357Z,4.30
2022-11-15T18:14:11.843Z,4.10
2022-11-15T18:16:40.311Z,4.53
2022-11-15T18:19:13.373Z,5.00
2022-11-15T18:22:00.010Z,4.93
2022-11-15T18:24:33.499Z,5.30
2022-11-15T18:27:03.536Z,4.13
2022-11-15T18:29:33.359Z,4.10
2022-11-15T18:32:05.077Z,4.47
2022-11-15T18:34:34.279Z,5.00
2022-11-15T18:37:03.464Z,4.00
2022-11-15T18:39:33.814Z,4.63
2022-11-15T18:42:02.658Z,4.70
2022-11-15T18:44:31.760Z,3.97
2022-11-15T18:47:00.152Z,5.23
2022-11-15T18:49:28.580Z,5.90
2022-11-15T18:51:57.130Z,5.23
2022-11-15T18:54:30.648Z,5.20
2022-11-15T18:57:01.730Z,4.83
2022-11-15T18:59:31.097Z,6.00
2022-11-15T19:01:59.667Z,6.20
2022-11-15T19:04:28.350Z,6.40
2022-11-15T19:06:56.773Z,6.60
2022-11-15T19:09:32.047Z,5.90
2022-11-15T19:12:01.893Z,6.00
2022-11-15T19:14:30.270Z,6.30
2022-11-15T19:16:59.172Z,6.50
2022-11-15T19:19:30.040Z,6.27
2022-11-15T19:21:58.641Z,4.90
2022-11-15T19:24:27.628Z,5.10
2022-11-15T19:26:56.007Z,5.47
2022-11-15T19:29:25.848Z,5.93
2022-11-15T19:31:54.301Z,5.60
2022-11-15T19:34:22.770Z,5.53
2022-11-15T19:36:51.248Z,5.70
2022-11-15T19:39:19.677Z,6.23
2022-11-15T19:41:48.319Z,5.80
2022-11-15T19:44:16.786Z,5.10
2022-11-15T19:46:46.528Z,5.23
2022-11-15T19:49:14.957Z,5.43
2022-11-15T19:51:45.214Z,4.77
2022-11-15T19:54:13.803Z,5.37
2022-11-15T19:56:42.180Z,5.13
2022-11-15T19:59:11.910Z,4.90
2022-11-15T20:01:40.565Z,5.70
2022-11-15T20:04:10.966Z,5.93
2022-11-15T20:06:41.961Z,6.53
2022-11-15T20:09:14.464Z,5.67
2022-11-15T20:11:43.228Z,6.37
2022-11-15T20:14:13.042Z,6.73
2022-11-15T20:16:41.813Z,5.17
2022-11-15T20:19:12.554Z,6.00
2022-11-15T20:21:41.278Z,6.00
2022-11-15T20:24:10.109Z,6.50
2022-11-15T20:26:39.318Z,8.37
2022-11-15T20:29:09.961Z,7.90
2022-11-15T20:31:38.592Z,7.30
2022-11-15T20:34:07.307Z,7.90
2022-11-15T20:36:37.159Z,7.70
2022-11-15T20:39:05.601Z,9.13
2022-11-15T20:41:34.061Z,7.87
2022-11-15T20:44:03.692Z,8.53
2022-11-15T20:46:32.205Z,8.60
2022-11-15T20:49:00.852Z,7.60
2022-11-15T20:51:29.237Z,7.60
2022-11-15T20:53:58.996Z,7.17
2022-11-15T20:56:27.430Z,7.37
2022-11-15T20:58:56.619Z,7.10
2022-11-15T21:01:25.598Z,7.20
2022-11-15T21:03:55.329Z,7.27
2022-11-15T21:06:25.562Z,7.10
2022-11-15T21:09:12.962Z,6.80
2022-11-15T21:12:06.305Z,7.13
2022-11-15T21:14:34.839Z,7.27
2022-11-15T21:17:03.410Z,6.97
2022-11-15T21:19:36.857Z,6.70
2022-11-15T21:22:10.089Z,6.87
2022-11-15T21:24:38.599Z,7.53
2022-11-15T21:27:10.037Z,6.90
2022-11-15T21:29:38.718Z,7.30
2022-11-15T21:32:08.719Z,7.27
2022-11-15T21:34:37.312Z,7.20
2022-11-15T21:37:06.881Z,7.53
2022-11-15T21:39:35.310Z,7.27
2022-11-15T21:42:03.915Z,7.13
2022-11-15T21:44:33.754Z,6.27
2022-11-15T21:47:02.122Z,6.77
2022-11-15T21:49:30.666Z,6.20
2022-11-15T21:51:59.030Z,6.97
2022-11-15T21:54:27.497Z,7.07
2022-11-15T21:56:56.054Z,6.80
2022-11-15T21:59:24.500Z,6.43
2022-11-15T22:02:12.174Z,7.03
2022-11-15T22:04:40.552Z,6.70
2022-11-15T22:07:09.156Z,6.93
2022-11-15T22:09:37.666Z,6.50
2022-11-15T22:12:06.289Z,7.00
2022-11-15T22:14:34.588Z,6.10
2022-11-15T22:17:04.669Z,6.93
2022-11-15T22:19:33.200Z,5.53
2022-11-15T22:22:01.803Z,5.13
2022-11-15T22:24:30.520Z,5.30
2022-11-15T22:26:59.255Z,5.13
2022-11-15T22:29:30.982Z,6.13
2022-11-15T22:31:59.976Z,6.37
2022-11-15T22:34:30.018Z,5.83
2022-11-15T22:37:19.961Z,5.90
2022-11-15T22:39:47.322Z,6.13
2022-11-15T22:42:20.708Z,5.20
2022-11-15T22:44:51.958Z,5.70
2022-11-15T22:47:20.555Z,6.13
2022-11-15T22:49:51.248Z,6.07
2022-11-15T22:52:20.163Z,6.00
2022-11-15T22:54:48.691Z,6.67
2022-11-15T22:57:17.242Z,5.47
2022-11-15T22:59:45.921Z,6.50
2022-11-15T23:02:14.536Z,6.03
2022-11-15T23:04:43.108Z,5.80
2022-11-15T23:07:13.222Z,5.90
2022-11-15T23:09:41.899Z,5.60
2022-11-15T23:12:30.970Z,5.07
2022-11-15T23:14:59.567Z,5.33
2022-11-15T23:17:28.129Z,5.37
2022-11-15T23:19:56.648Z,5.43
2022-11-15T23:22:44.214Z,5.83
2022-11-15T23:25:12.786Z,5.43
2022-11-15T23:27:41.363Z,5.67
2022-11-15T23:30:28.830Z,5.70
2022-11-15T23:33:15.193Z,5.30
2022-11-15T23:35:43.814Z,5.60
2022-11-15T23:38:13.824Z,5.70
2022-11-15T23:40:42.592Z,5.60
2022-11-15T23:43:11.238Z,6.20
2022-11-15T23:45:39.851Z,6.40
2022-11-15T23:48:08.555Z,5.20
2022-11-15T23:50:38.125Z,5.37
2022-11-15T23:53:07.385Z,5.30
2022-11-15T23:55:37.424Z,6.03
2022-11-15T23:58:06.089Z,5.27
